Terminal Aerodrome Forecast
Issued by NWS Sioux Falls, SD

Home | Current Version | Previous Version | Graphics & Text | Print | Product List | Glossary On
Versions: 1 2 3 4 5 6 7 8 9 10 11 12 13 14 15 16 17 18 19 20 21 22 23 24 25 26 27 28 29 30 31 32 33
000
FTUS43 KFSD 172320
TAFSUX
TAF
KSUX 172320Z 1800/1824 VRB03KT P6SM BKN120
     FM180500 11004KT P6SM VCTS BKN060CB
     FM180900 11005KT P6SM -SHRA VCTS OVC040CB
     FM181200 11005KT P6SM SHRA OVC015
     FM181400 12006KT 5SM -SHRA BR OVC008
     FM181600 14005KT P6SM BKN008
     FM182000 15006KT P6SM SCT020=

USA.gov is the U.S. government's official web portal to all federal, state and local government web resources and services.